Sardinia Vera — IBWV — position and weather

sailwx.info

Track history (hours):
 
Tides and Currents Weather Stations Pressure Air Temp Water Temp Dewpoint Dewpoint Depression Visibility Wind Speed Wind Dir Waves Ship Positions

Sardinia Vera

Last reported at 2017-May-26 01:05 UTC. Time now 2017-May-26 07:25 UTC.
Position N 37°35' E 000°11'.

; draft 5.2 m.

Type: Ship. MMSI: 247392000.

Date/timePositionNaut miles runAvg speedWind from/ knotsBaromVisibWave heightAir tempDewpointWater temp
2017-May-26 01:05N 37°35' E 000°11'115.5
2017-May-26 01:01N 37°34' E 000°11'1015.6
2017-May-26 00:24N 37°24' E 000°13'615.8
2017-May-26 00:00N 37°18' E 000°12'816.0
2017-May-25 23:31N 37°10' E 000°11'3916.3
2017-May-25 21:07N 36°31' E 000°04'216.2
2017-May-25 20:58N 36°29' E 000°04'178 6.4
2017-May-24 16:56N 39°27' W 000°19'0 0.0
2017-May-24 08:21N 39°27' W 000°19'0 0.0
2017-May-22 16:48N 39°27' W 000°19'1 0.1
2017-May-22 08:38N 39°27' W 000°19'0 0.6
2017-May-22 08:30N 39°27' W 000°19'155 5.4
2017-May-21 03:29N 36°53' E 000°05'7615.5
2017-May-20 22:36N 38°05' E 000°35'316.1
2017-May-20 22:23N 38°08' E 000°36'9015.7
2017-May-20 16:40N 39°27' W 000°19'1 3.3
2017-May-20 16:29N 39°27' W 000°20'0 0.0
2017-May-20 15:59N 39°27' W 000°20'0 0.0
2017-May-20 15:31N 39°27' W 000°20'0 0.0
2017-May-20 15:01N 39°27' W 000°20'0 0.0
2017-May-20 14:00N 39°27' W 000°20'0 0.0
2017-May-20 13:30N 39°27' W 000°20'0 0.0
2017-May-20 13:01N 39°27' W 000°20'0 0.0
2017-May-20 12:28N 39°27' W 000°20'0 0.0
2017-May-20 11:56N 39°27' W 000°20'0 0.0
2017-May-20 11:29N 39°27' W 000°20'0 0.0
2017-May-20 10:55N 39°27' W 000°20'0 0.0
2017-May-20 10:30N 39°27' W 000°20'0 0.0
2017-May-20 09:57N 39°27' W 000°20'0 0.0
2017-May-20 09:25N 39°27' W 000°20'0 0.0
2017-May-20 09:00N 39°27' W 000°20'0 0.0
2017-May-20 08:30N 39°27' W 000°20'1 0.0
2017-May-18 17:06N 39°27' W 000°19'1 0.1
2017-May-18 07:52N 39°27' W 000°19'11314.6
2017-May-18 00:09N 37°37' E 000°16'216.5
2017-May-18 00:01N 37°35' E 000°16'1016.6
2017-May-17 23:26N 37°26' E 000°16'3416.8
2017-May-17 21:25N 36°52' E 000°08'70 3.1
2017-May-16 22:53N 37°56' E 000°43'616.1
2017-May-16 22:30N 38°03' E 000°41'916.5
2017-May-16 21:57N 38°12' E 000°40'8816.2
2017-May-16 16:33N 39°26' W 000°19'1 0.1
2017-May-16 08:14N 39°27' W 000°19'  
Track history (hours):
 
Tides and Currents Weather Stations Pressure Air Temp Water Temp Dewpoint Dewpoint Depression Visibility Wind Speed Wind Dir Waves Ship Positions

Sardinia Vera

Last reported at 2017-May-26 01:05 UTC. Time now 2017-May-26 07:25 UTC.
Position N 37°35' E 000°11'.

; draft 5.2 m.

Type: Ship. MMSI: 247392000.

Date/timePositionNaut miles runAvg speedWind from/ knotsBaromVisibWave heightAir tempDewpointWater temp
2017-May-26 01:05N 37°35' E 000°11'115.5
2017-May-26 01:01N 37°34' E 000°11'1015.6
2017-May-26 00:24N 37°24' E 000°13'615.8
2017-May-26 00:00N 37°18' E 000°12'816.0
2017-May-25 23:31N 37°10' E 000°11'3916.3
2017-May-25 21:07N 36°31' E 000°04'216.2
2017-May-25 20:58N 36°29' E 000°04'178 6.4
2017-May-24 16:56N 39°27' W 000°19'0 0.0
2017-May-24 08:21N 39°27' W 000°19'0 0.0
2017-May-22 16:48N 39°27' W 000°19'1 0.1
2017-May-22 08:38N 39°27' W 000°19'0 0.6
2017-May-22 08:30N 39°27' W 000°19'155 5.4
2017-May-21 03:29N 36°53' E 000°05'7615.5
2017-May-20 22:36N 38°05' E 000°35'316.1
2017-May-20 22:23N 38°08' E 000°36'9015.7
2017-May-20 16:40N 39°27' W 000°19'1 3.3
2017-May-20 16:29N 39°27' W 000°20'0 0.0
2017-May-20 15:59N 39°27' W 000°20'0 0.0
2017-May-20 15:31N 39°27' W 000°20'0 0.0
2017-May-20 15:01N 39°27' W 000°20'0 0.0
2017-May-20 14:00N 39°27' W 000°20'0 0.0
2017-May-20 13:30N 39°27' W 000°20'0 0.0
2017-May-20 13:01N 39°27' W 000°20'0 0.0
2017-May-20 12:28N 39°27' W 000°20'0 0.0
2017-May-20 11:56N 39°27' W 000°20'0 0.0
2017-May-20 11:29N 39°27' W 000°20'0 0.0
2017-May-20 10:55N 39°27' W 000°20'0 0.0
2017-May-20 10:30N 39°27' W 000°20'0 0.0
2017-May-20 09:57N 39°27' W 000°20'0 0.0
2017-May-20 09:25N 39°27' W 000°20'0 0.0
2017-May-20 09:00N 39°27' W 000°20'0 0.0
2017-May-20 08:30N 39°27' W 000°20'1 0.0
2017-May-18 17:06N 39°27' W 000°19'1 0.1
2017-May-18 07:52N 39°27' W 000°19'11314.6
2017-May-18 00:09N 37°37' E 000°16'216.5
2017-May-18 00:01N 37°35' E 000°16'1016.6
2017-May-17 23:26N 37°26' E 000°16'3416.8
2017-May-17 21:25N 36°52' E 000°08'70 3.1
2017-May-16 22:53N 37°56' E 000°43'616.1
2017-May-16 22:30N 38°03' E 000°41'916.5
2017-May-16 21:57N 38°12' E 000°40'8816.2
2017-May-16 16:33N 39°26' W 000°19'1 0.1
2017-May-16 08:14N 39°27' W 000°19'  

Dump ship's entire track history